Time;durP1;ratioP1;P1;durP2;ratioP2;P2;SDS_P1;SDS_P2;PMS_P1;PMS_P2;Temp;Humidity;BMP_temperature;BMP_pressure;BME280_temperature;BME280_humidity;BME280_pressure;Samples;Min_cycle;Max_cycle;Signal;HPM_P1;HPM_P2
2021/05/06 00:04:22;;;;;;;2.95;2.60;;;;;;;6.74;100.00;96004.41;5001823;28;20479;-66
2021/05/06 00:32:28;;;;;;;6.93;2.47;;;;;;;7.10;100.00;95981.22;4927215;29;20130;-64
2021/05/06 00:34:55;;;;;;;3.55;2.58;;;;;;;7.02;100.00;95986.28;4991485;28;20065;-67
2021/05/06 00:37:24;;;;;;;3.40;2.72;;;;;;;7.01;100.00;95979.38;4991699;28;20115;-66
2021/05/06 00:39:56;;;;;;;3.85;2.50;;;;;;;7.01;100.00;95982.84;5007334;28;20073;-66
2021/05/06 00:45:45;;;;;;;2.70;2.42;;;;;;;7.04;100.00;95979.13;4953837;28;20041;-67
2021/05/06 00:54:23;;;;;;;3.65;2.42;;;;;;;7.13;100.00;95973.06;5008320;28;20069;-65
2021/05/06 00:56:55;;;;;;;2.83;2.63;;;;;;;7.06;100.00;95972.78;5004569;28;20042;-65
2021/05/06 01:02:35;;;;;;;3.15;2.50;;;;;;;7.05;100.00;95978.16;4987537;28;20054;-66
2021/05/06 01:05:08;;;;;;;3.42;2.50;;;;;;;7.06;100.00;95970.16;4992230;28;20046;-66
2021/05/06 01:13:05;;;;;;;4.68;2.45;;;;;;;7.13;100.00;95968.66;5008391;28;20073;-65
2021/05/06 01:15:33;;;;;;;3.70;2.30;;;;;;;7.05;100.00;95975.53;5002759;28;20508;-64
2021/05/06 01:18:18;;;;;;;5.28;2.80;;;;;;;7.32;100.00;95967.84;4988154;28;20066;-65
2021/05/06 01:20:50;;;;;;;3.35;2.60;;;;;;;7.46;100.00;95978.91;4984167;28;20068;-66
2021/05/06 01:23:18;;;;;;;5.00;2.70;;;;;;;7.45;100.00;95972.00;4987643;28;20057;-65
2021/05/06 01:25:52;;;;;;;2.67;2.30;;;;;;;7.44;100.00;95970.34;5004260;28;20443;-66
2021/05/06 01:28:23;;;;;;;3.28;2.35;;;;;;;7.53;100.00;95967.72;5002656;28;20064;-66
2021/05/06 01:30:56;;;;;;;3.78;2.65;;;;;;;7.31;100.00;95973.22;5004948;28;20046;-66
2021/05/06 01:33:30;;;;;;;3.63;2.67;;;;;;;7.19;100.00;95976.94;5001046;28;20072;-65
2021/05/06 01:36:01;;;;;;;3.67;2.50;;;;;;;7.20;100.00;95976.00;4999956;28;20566;-65
2021/05/06 01:39:04;;;;;;;4.22;2.42;;;;;;;7.27;100.00;95977.94;5001714;28;20073;-64
2021/05/06 01:41:47;;;;;;;5.18;3.03;;;;;;;7.32;100.00;95970.47;4999387;28;20073;-64
2021/05/06 01:44:21;;;;;;;4.38;2.55;;;;;;;7.51;100.00;95972.28;5003949;28;20511;-64
2021/05/06 01:47:06;;;;;;;2.70;2.40;;;;;;;7.23;100.00;95971.31;5002945;28;20462;-64
2021/05/06 02:00:40;;;;;;;2.92;2.38;;;;;;;7.40;100.00;95976.81;4982651;28;20068;-64
2021/05/06 02:03:08;;;;;;;4.60;2.53;;;;;;;7.47;100.00;95965.66;4999198;28;20066;-64
2021/05/06 02:05:36;;;;;;;4.20;2.88;;;;;;;7.53;100.00;95959.00;5006294;28;20068;-64
2021/05/06 02:08:05;;;;;;;3.05;2.50;;;;;;;7.57;100.00;95950.75;5001785;28;20035;-63
2021/05/06 02:10:32;;;;;;;3.40;2.55;;;;;;;7.35;100.00;95959.69;5005089;28;20069;-64
2021/05/06 02:13:00;;;;;;;2.95;2.45;;;;;;;7.37;100.00;95960.41;5005086;28;20098;-64
2021/05/06 02:15:30;;;;;;;2.60;2.40;;;;;;;7.15;100.00;95944.91;5002602;28;20088;-62
2021/05/06 02:17:59;;;;;;;2.78;2.58;;;;;;;7.28;100.00;95940.22;5002508;28;20066;-64
2021/05/06 02:20:27;;;;;;;3.58;2.80;;;;;;;7.43;100.00;95929.31;5004973;28;20065;-64
2021/05/06 02:22:55;;;;;;;4.93;2.60;;;;;;;7.33;100.00;95935.41;4988397;28;20041;-64
2021/05/06 02:25:24;;;;;;;3.35;2.70;;;;;;;7.33;100.00;95922.31;5003064;28;20074;-65
2021/05/06 02:27:52;;;;;;;3.58;2.50;;;;;;;7.16;100.00;95928.22;5004939;28;20652;-64
2021/05/06 02:30:20;;;;;;;3.22;2.63;;;;;;;7.41;100.00;95919.00;4997406;28;20298;-63
2021/05/06 02:32:49;;;;;;;3.78;2.85;;;;;;;6.78;100.00;95927.19;5004354;28;20587;-64
2021/05/06 02:35:17;;;;;;;4.80;2.45;;;;;;;7.04;100.00;95918.81;4997820;28;20072;-63
2021/05/06 02:37:45;;;;;;;5.55;2.90;;;;;;;6.89;100.00;95923.63;5002905;28;20065;-66
2021/05/06 02:40:14;;;;;;;11.48;3.53;;;;;;;6.89;100.00;95911.34;5002278;28;20074;-66
2021/05/06 02:42:43;;;;;;;4.05;2.60;;;;;;;6.96;100.00;95922.13;5006364;28;20086;-64
2021/05/06 02:45:12;;;;;;;5.72;2.92;;;;;;;6.94;100.00;95923.22;5000912;28;20070;-65
2021/05/06 02:47:40;;;;;;;5.60;3.00;;;;;;;7.04;100.00;95919.66;5004322;28;20088;-64
2021/05/06 02:50:12;;;;;;;4.68;3.08;;;;;;;7.21;100.00;95919.94;4988281;28;20053;-65
2021/05/06 02:52:46;;;;;;;4.97;3.05;;;;;;;7.07;100.00;95918.56;5005072;28;20077;-65
2021/05/06 02:55:19;;;;;;;5.32;2.60;;;;;;;7.06;100.00;95925.59;4984637;28;20073;-65
2021/05/06 02:57:52;;;;;;;3.10;2.60;;;;;;;7.01;100.00;95917.28;5008497;28;20053;-65
2021/05/06 03:03:05;;;;;;;6.35;2.95;;;;;;;7.24;100.00;95904.75;4976760;28;20074;-65
2021/05/06 03:05:36;;;;;;;4.18;2.90;;;;;;;7.09;100.00;95901.72;5003557;28;20085;-66
2021/05/06 03:08:09;;;;;;;3.28;2.88;;;;;;;7.19;100.00;95900.88;4987734;28;20066;-66
2021/05/06 03:10:58;;;;;;;4.65;2.72;;;;;;;6.76;100.00;95908.16;5001873;28;20080;-65
2021/05/06 03:24:44;;;;;;;3.58;2.65;;;;;;;6.63;100.00;95895.28;5006375;28;20411;-66
2021/05/06 03:27:15;;;;;;;5.88;2.90;;;;;;;6.76;100.00;95892.44;4985236;28;20136;-66
2021/05/06 03:29:56;;;;;;;3.25;2.90;;;;;;;6.79;100.00;95892.16;5001254;28;20064;-65
2021/05/06 03:32:31;;;;;;;5.93;3.20;;;;;;;6.70;100.00;95898.22;5003246;28;20061;-65
2021/05/06 03:35:15;;;;;;;5.10;3.00;;;;;;;6.61;100.00;95894.63;5004530;28;20433;-66
2021/05/06 03:43:25;;;;;;;3.08;2.80;;;;;;;6.57;100.00;95898.47;4971460;28;20042;-65
2021/05/06 03:46:38;;;;;;;4.88;2.85;;;;;;;6.66;100.00;95902.88;5006917;28;20073;-66
2021/05/06 03:49:32;;;;;;;3.63;2.78;;;;;;;6.72;100.00;95898.91;5001547;28;20267;-66
2021/05/06 04:03:42;;;;;;;4.30;2.70;;;;;;;6.86;100.00;95914.25;5004808;28;20074;-66
2021/05/06 04:15:00;;;;;;;3.72;2.28;;;;;;;6.97;100.00;95909.84;4947134;28;20130;-66
2021/05/06 04:17:39;;;;;;;6.10;2.90;;;;;;;7.09;100.00;95919.25;5001680;28;20061;-66
2021/05/06 04:25:49;;;;;;;4.82;2.50;;;;;;;7.18;100.00;95928.09;5009274;28;20108;-66
2021/05/06 04:31:23;;;;;;;6.25;3.08;;;;;;;7.15;100.00;95931.81;4953918;28;20073;-66
2021/05/06 04:36:54;;;;;;;3.08;2.50;;;;;;;7.60;100.00;95923.38;5007103;28;20453;-67
2021/05/06 04:39:30;;;;;;;7.18;2.58;;;;;;;7.82;100.00;95924.91;5002925;28;20076;-66
2021/05/06 04:42:14;;;;;;;3.88;2.15;;;;;;;7.71;100.00;95936.38;5008747;28;20058;-67
2021/05/06 04:50:23;;;;;;;5.13;2.25;;;;;;;7.49;100.00;95926.97;5002045;28;20120;-67
2021/05/06 04:56:08;;;;;;;5.22;2.83;;;;;;;7.57;100.00;95931.53;4995025;28;20061;-66
2021/05/06 05:04:13;;;;;;;4.28;2.83;;;;;;;7.63;100.00;95923.09;5007287;28;20046;-66
2021/05/06 05:06:49;;;;;;;5.85;2.63;;;;;;;7.52;100.00;95937.19;5006344;28;20092;-65
2021/05/06 05:09:38;;;;;;;7.22;2.85;;;;;;;7.64;100.00;95937.06;5002737;28;20104;-65
2021/05/06 05:12:12;;;;;;;3.75;2.33;;;;;;;7.74;100.00;95933.47;4985084;28;20069;-65
2021/05/06 05:15:02;;;;;;;4.78;2.55;;;;;;;7.69;100.00;95937.47;5002042;28;20073;-64
2021/05/06 05:17:50;;;;;;;4.70;2.60;;;;;;;7.56;100.00;95937.75;5006265;28;20540;-66
2021/05/06 05:20:22;;;;;;;3.38;2.20;;;;;;;7.58;100.00;95935.84;5003237;28;20107;-66
2021/05/06 05:25:38;;;;;;;5.05;2.55;;;;;;;7.72;100.00;95924.91;5004127;28;20042;-65
2021/05/06 05:28:07;;;;;;;3.80;2.45;;;;;;;7.99;100.00;95929.41;5008223;28;20058;-65
2021/05/06 05:30:38;;;;;;;4.22;2.75;;;;;;;7.89;100.00;95920.72;5004917;28;21377;-65
2021/05/06 05:33:10;;;;;;;3.75;2.50;;;;;;;8.14;100.00;95910.59;5007305;28;20085;-67
2021/05/06 05:35:40;;;;;;;4.50;2.47;;;;;;;8.15;100.00;95912.22;5004308;28;20393;-67
2021/05/06 05:38:12;;;;;;;4.38;2.60;;;;;;;8.86;100.00;95911.69;5002947;28;20437;-65
2021/05/06 05:40:46;;;;;;;6.95;4.35;;;;;;;8.42;100.00;95924.59;5003814;28;20057;-65
2021/05/06 05:43:48;;;;;;;3.97;2.45;;;;;;;8.70;100.00;95925.44;5007488;28;20064;-66
2021/05/06 05:54:38;;;;;;;4.35;2.75;;;;;;;8.20;100.00;95934.47;4985822;28;20539;-65
2021/05/06 05:57:09;;;;;;;3.83;2.72;;;;;;;8.27;100.00;95935.56;5000735;28;20066;-66
2021/05/06 05:59:37;;;;;;;2.47;2.25;;;;;;;8.41;100.00;95938.72;4986701;28;20080;-67
2021/05/06 06:02:06;;;;;;;4.07;2.90;;;;;;;9.06;100.00;95936.06;4985024;28;20042;-66
2021/05/06 06:04:34;;;;;;;5.35;2.75;;;;;;;9.64;100.00;95922.47;5004837;28;20074;-66
2021/05/06 06:07:03;;;;;;;5.45;2.50;;;;;;;9.22;100.00;95936.22;4987498;28;20073;-66
2021/05/06 06:09:30;;;;;;;4.68;2.65;;;;;;;9.48;100.00;95931.88;5004475;28;20498;-66
2021/05/06 06:11:59;;;;;;;5.53;2.25;;;;;;;9.15;100.00;95927.25;5004671;28;20045;-65
2021/05/06 06:14:34;;;;;;;3.58;2.30;;;;;;;9.26;100.00;95927.88;4987248;28;20070;-65
2021/05/06 06:17:02;;;;;;;6.05;2.42;;;;;;;9.42;100.00;95929.81;4983939;28;20062;-65
2021/05/06 06:19:34;;;;;;;5.40;2.40;;;;;;;9.42;100.00;95918.47;5000949;28;20482;-65
2021/05/06 06:22:04;;;;;;;3.45;2.42;;;;;;;9.26;100.00;95919.16;5008009;28;20061;-65
2021/05/06 06:24:32;;;;;;;5.32;2.40;;;;;;;9.78;100.00;95913.22;4983925;28;20441;-66
2021/05/06 06:27:00;;;;;;;4.05;2.10;;;;;;;10.39;100.00;95907.00;4987842;28;20065;-66
2021/05/06 06:29:31;;;;;;;6.07;3.42;;;;;;;10.20;100.00;95902.78;4981665;28;20070;-65
2021/05/06 06:32:01;;;;;;;4.25;2.53;;;;;;;10.75;100.00;95898.94;5005200;28;20109;-65
2021/05/06 06:34:29;;;;;;;5.35;2.47;;;;;;;10.29;100.00;95893.13;4986950;28;20072;-65
2021/05/06 06:36:58;;;;;;;5.35;2.80;;;;;;;10.70;100.00;95883.59;4988932;28;20378;-65
2021/05/06 06:39:27;;;;;;;6.15;2.63;;;;;;;10.60;100.00;95881.09;5000080;28;20135;-65
2021/05/06 06:41:56;;;;;;;3.00;2.35;;;;;;;10.76;100.00;95882.13;5006270;28;20065;-65
2021/05/06 06:44:27;;;;;;;4.78;2.42;;;;;;;11.02;100.00;95884.69;5000561;28;20069;-64
2021/05/06 06:47:03;;;;;;;4.68;2.05;;;;;;;10.55;100.00;95878.09;5004291;28;20477;-65
2021/05/06 06:49:33;;;;;;;5.47;2.30;;;;;;;10.67;100.00;95876.84;5002007;28;20461;-63
2021/05/06 06:52:03;;;;;;;3.22;2.17;;;;;;;10.82;100.00;95870.94;5007260;28;20680;-64
2021/05/06 06:54:31;;;;;;;3.85;2.40;;;;;;;11.20;100.00;95861.63;5002768;28;20057;-64
2021/05/06 06:57:04;;;;;;;4.82;2.33;;;;;;;11.13;100.00;95861.44;4988061;28;20069;-65
2021/05/06 06:59:32;;;;;;;5.43;2.70;;;;;;;11.36;100.00;95859.00;5003431;28;20076;-62
2021/05/06 07:02:01;;;;;;;6.18;2.60;;;;;;;11.34;100.00;95868.91;5005166;28;20069;-64
2021/05/06 07:04:30;;;;;;;5.05;2.20;;;;;;;11.03;100.00;95857.31;5002073;28;20074;-63
2021/05/06 07:06:58;;;;;;;6.53;2.70;;;;;;;10.66;100.00;95855.88;5007999;28;20085;-64
2021/05/06 07:09:26;;;;;;;5.47;2.40;;;;;;;11.10;100.00;95858.31;4998268;28;20073;-63
2021/05/06 07:11:55;;;;;;;6.90;2.50;;;;;;;10.95;97.84;95865.22;5002725;28;20539;-65
2021/05/06 07:14:22;;;;;;;4.72;2.50;;;;;;;10.85;90.24;95866.19;5000636;28;20042;-64
2021/05/06 07:17:11;;;;;;;5.63;2.40;;;;;;;11.05;91.48;95855.34;4988028;28;20058;-65
2021/05/06 07:19:39;;;;;;;5.85;2.30;;;;;;;11.07;88.68;95843.63;5001276;28;20069;-66
2021/05/06 07:22:07;;;;;;;10.70;2.65;;;;;;;11.52;85.55;95850.25;5004297;28;20081;-65
2021/05/06 07:24:37;;;;;;;4.78;2.00;;;;;;;11.23;84.38;95842.00;5004780;28;20559;-64
2021/05/06 07:27:08;;;;;;;3.85;2.20;;;;;;;11.25;78.19;95835.59;5002959;28;20124;-63
2021/05/06 07:29:37;;;;;;;3.60;2.00;;;;;;;11.59;75.82;95830.09;5006451;28;20067;-66
2021/05/06 07:32:07;;;;;;;6.03;2.10;;;;;;;11.43;77.44;95830.13;5002346;28;20070;-65
2021/05/06 07:34:37;;;;;;;4.57;2.27;;;;;;;11.85;70.40;95821.22;4999645;28;20709;-64
2021/05/06 07:37:07;;;;;;;;;;;;;;;11.77;69.78;95819.38;5006274;28;20449;-65
2021/05/06 07:39:37;;;;;;;7.57;2.30;;;;;;;11.59;76.28;95811.63;5000426;28;20360;-66
2021/05/06 07:42:07;;;;;;;4.75;2.03;;;;;;;11.85;64.40;95800.91;5002310;28;20058;-65
2021/05/06 07:44:37;;;;;;;5.78;2.10;;;;;;;12.22;71.74;95803.94;5002760;28;20066;-66
2021/05/06 07:47:10;;;;;;;4.80;1.88;;;;;;;12.18;67.99;95802.59;5001845;28;20061;-66
2021/05/06 07:49:45;;;;;;;5.88;2.22;;;;;;;12.73;68.36;95797.25;5002345;28;20046;-66
2021/05/06 07:52:19;;;;;;;5.90;2.00;;;;;;;12.39;64.40;95794.09;4999088;28;20072;-66
2021/05/06 07:54:55;;;;;;;7.90;2.22;;;;;;;12.73;60.36;95796.41;5008252;28;20470;-64
2021/05/06 07:57:24;;;;;;;5.15;2.25;;;;;;;12.72;55.46;95792.13;5001521;28;20042;-66
2021/05/06 07:59:52;;;;;;;5.07;2.17;;;;;;;13.43;55.21;95776.94;5004295;28;20072;-65
2021/05/06 08:02:20;;;;;;;7.57;2.05;;;;;;;13.25;64.31;95782.53;5001749;28;20061;-65
2021/05/06 08:04:50;;;;;;;4.25;2.08;;;;;;;12.67;67.37;95778.59;5002937;28;20061;-65
2021/05/06 08:07:18;;;;;;;6.10;2.40;;;;;;;12.59;64.36;95772.38;5002860;28;20078;-66
2021/05/06 08:09:47;;;;;;;5.43;2.05;;;;;;;12.86;60.88;95772.03;4988350;28;20077;-66
2021/05/06 08:12:18;;;;;;;7.03;2.30;;;;;;;13.28;61.28;95768.91;4999808;28;20038;-65
2021/05/06 08:14:46;;;;;;;5.38;2.30;;;;;;;12.86;56.79;95775.50;5008344;28;20033;-66
2021/05/06 08:17:14;;;;;;;5.68;2.28;;;;;;;13.42;59.07;95772.59;4999693;28;20089;-65
2021/05/06 08:19:43;;;;;;;4.87;1.90;;;;;;;13.47;59.13;95757.03;5001289;28;20061;-65
2021/05/06 08:22:12;;;;;;;6.80;1.90;;;;;;;13.13;67.75;95762.75;5003608;28;20069;-64
2021/05/06 08:24:40;;;;;;;4.10;2.08;;;;;;;13.33;70.24;95760.47;5006183;28;20577;-65
2021/05/06 08:27:10;;;;;;;3.90;1.90;;;;;;;13.20;61.53;95756.56;5002564;28;20103;-65
2021/05/06 08:29:38;;;;;;;4.50;1.80;;;;;;;12.80;61.80;95752.38;5002162;28;20042;-65
2021/05/06 08:32:06;;;;;;;4.57;1.83;;;;;;;13.21;57.43;95749.44;4986043;28;20065;-65
2021/05/06 08:34:35;;;;;;;4.60;2.20;;;;;;;13.18;58.05;95757.72;5000827;28;20076;-64
2021/05/06 08:37:03;;;;;;;3.17;1.85;;;;;;;13.23;59.27;95748.25;5006976;28;20080;-66
2021/05/06 08:39:31;;;;;;;5.85;2.00;;;;;;;13.04;58.28;95741.63;5000094;28;20066;-65
2021/05/06 08:42:00;;;;;;;3.92;1.80;;;;;;;13.60;61.85;95740.53;5003836;28;20081;-65
2021/05/06 08:44:32;;;;;;;3.78;1.73;;;;;;;13.88;62.17;95746.84;5000983;28;20050;-65
2021/05/06 08:47:04;;;;;;;3.97;2.08;;;;;;;13.55;55.28;95746.34;4980367;28;20050;-66
2021/05/06 08:49:34;;;;;;;6.53;2.00;;;;;;;14.13;54.76;95744.72;5005326;28;20038;-65
2021/05/06 08:52:05;;;;;;;5.32;2.33;;;;;;;14.76;53.39;95745.06;5009752;28;20064;-65
2021/05/06 08:54:34;;;;;;;5.47;1.85;;;;;;;14.50;55.40;95745.63;5006608;28;20460;-64
2021/05/06 08:57:02;;;;;;;4.75;2.00;;;;;;;14.16;54.80;95743.53;5008296;28;20076;-65
2021/05/06 08:59:30;;;;;;;6.22;2.40;;;;;;;14.46;55.11;95745.13;5004783;28;20066;-65
2021/05/06 09:01:58;;;;;;;4.93;1.70;;;;;;;14.45;52.73;95738.19;5006866;28;20419;-65
2021/05/06 09:04:26;;;;;;;4.97;2.10;;;;;;;14.40;55.37;95735.25;5006432;28;20093;-64
2021/05/06 09:06:56;;;;;;;4.03;2.03;;;;;;;13.73;54.47;95738.88;5011346;28;20580;-64
2021/05/06 09:09:25;;;;;;;5.18;2.08;;;;;;;13.74;56.42;95734.41;5006334;28;20072;-64
2021/05/06 09:11:55;;;;;;;5.45;2.10;;;;;;;13.88;56.95;95738.88;5007318;28;20065;-65
2021/05/06 09:14:38;;;;;;;5.88;1.98;;;;;;;14.39;56.66;95738.94;5005902;28;20066;-65
2021/05/06 09:17:08;;;;;;;3.83;1.85;;;;;;;15.20;48.51;95728.94;5005010;28;20069;-65
2021/05/06 09:19:35;;;;;;;3.10;1.93;;;;;;;15.84;47.08;95725.38;5004184;28;20065;-66
2021/05/06 09:22:04;;;;;;;6.55;2.08;;;;;;;14.96;51.32;95734.66;5009221;28;20473;-64
2021/05/06 09:24:36;;;;;;;4.65;2.10;;;;;;;14.32;56.58;95738.03;5005084;28;20153;-65
2021/05/06 09:27:06;;;;;;;4.70;2.33;;;;;;;14.85;56.59;95728.03;5005485;28;20072;-66
2021/05/06 09:29:37;;;;;;;3.65;1.90;;;;;;;15.42;52.09;95723.63;5004034;28;20073;-65
2021/05/06 09:32:09;;;;;;;;;;;;;;;14.62;52.08;95724.72;5008166;28;20069;-65
2021/05/06 09:34:37;;;;;;;4.22;1.80;;;;;;;15.11;51.19;95716.84;5005618;28;20352;-64
2021/05/06 09:37:07;;;;;;;4.30;2.00;;;;;;;15.41;47.10;95721.97;4991184;28;20078;-65
2021/05/06 09:39:37;;;;;;;4.82;1.90;;;;;;;15.75;47.96;95715.09;5005008;28;20079;-65
2021/05/06 09:42:08;;;;;;;5.30;2.17;;;;;;;15.38;55.23;95715.22;5003281;28;20076;-66
2021/05/06 09:44:54;;;;;;;4.68;2.08;;;;;;;15.02;64.32;95703.88;5005170;28;20120;-64
2021/05/06 09:47:22;;;;;;;5.22;1.98;;;;;;;15.26;53.29;95715.94;5001508;28;20042;-65
2021/05/06 09:49:52;;;;;;;5.77;2.10;;;;;;;15.56;50.53;95708.59;5003740;28;20071;-66
2021/05/06 09:52:20;;;;;;;4.68;1.92;;;;;;;15.22;50.28;95701.41;5000399;28;20523;-64
2021/05/06 09:54:50;;;;;;;7.88;2.63;;;;;;;15.38;51.56;95701.94;5010136;28;20114;-65
2021/05/06 09:57:27;;;;;;;6.80;2.20;;;;;;;15.40;54.08;95699.06;5000541;28;20100;-65
2021/05/06 10:00:16;;;;;;;5.65;2.00;;;;;;;15.89;49.86;95698.19;5004834;28;20069;-65
2021/05/06 10:02:45;;;;;;;6.10;2.08;;;;;;;16.22;53.97;95703.69;5002597;28;20085;-65
2021/05/06 10:05:36;;;;;;;5.97;2.00;;;;;;;15.58;49.07;95710.03;4999830;28;20095;-65
2021/05/06 10:08:04;;;;;;;4.15;1.88;;;;;;;14.51;53.61;95703.97;5003401;28;20065;-66
2021/05/06 10:10:34;;;;;;;5.60;1.92;;;;;;;14.11;55.32;95706.13;4996889;28;20521;-65
2021/05/06 10:13:04;;;;;;;5.32;2.00;;;;;;;13.90;55.74;95704.22;5006440;28;20548;-66
2021/05/06 10:15:32;;;;;;;6.25;1.95;;;;;;;13.62;56.19;95694.28;5006747;28;20077;-65
2021/05/06 10:18:01;;;;;;;6.07;1.98;;;;;;;14.21;55.34;95704.84;4984758;28;20076;-66
2021/05/06 10:20:30;;;;;;;3.80;1.73;;;;;;;14.08;63.06;95702.03;5003901;28;20064;-65
2021/05/06 10:23:16;;;;;;;3.92;1.95;;;;;;;14.11;51.76;95690.22;4996304;28;20065;-65
2021/05/06 10:25:45;;;;;;;4.35;1.70;;;;;;;13.51;58.27;95684.97;5004902;28;20184;-66
2021/05/06 10:28:16;;;;;;;5.57;2.10;;;;;;;13.64;63.54;95702.06;5001118;28;20085;-65
2021/05/06 10:30:45;;;;;;;5.00;1.88;;;;;;;13.70;60.19;95704.81;5004597;28;20751;-66
2021/05/06 10:33:13;;;;;;;5.53;1.98;;;;;;;13.95;63.75;95697.38;4990339;28;20058;-66
2021/05/06 10:35:42;;;;;;;6.82;2.10;;;;;;;13.75;63.82;95698.94;4999896;28;20070;-65
2021/05/06 10:41:34;;;;;;;5.00;1.98;;;;;;;13.60;68.50;95708.72;5004994;28;20076;-67
2021/05/06 10:44:04;;;;;;;4.88;1.80;;;;;;;13.77;60.29;95708.38;5003204;28;20701;-65
2021/05/06 10:46:59;;;;;;;6.40;2.25;;;;;;;14.04;60.38;95705.22;5000647;28;20045;-65
2021/05/06 10:49:28;;;;;;;5.35;2.05;;;;;;;13.88;67.08;95699.13;5000331;28;20138;-66
2021/05/06 10:52:03;;;;;;;3.00;1.55;;;;;;;13.14;68.74;95706.97;5005974;28;20096;-65
2021/05/06 10:54:36;;;;;;;4.63;2.05;;;;;;;13.05;67.45;95711.50;5000728;28;21794;-66
2021/05/06 10:57:28;;;;;;;7.03;1.83;;;;;;;13.27;67.40;95711.69;5006483;28;20515;-66
2021/05/06 10:59:57;;;;;;;6.05;2.10;;;;;;;13.04;72.38;95709.88;5000341;28;20103;-66
2021/05/06 11:02:48;;;;;;;4.05;1.60;;;;;;;13.09;81.79;95717.28;4998665;28;20068;-66
2021/05/06 11:05:18;;;;;;;3.22;1.73;;;;;;;13.03;75.40;95715.34;5003546;28;20065;-66
2021/05/06 11:08:20;;;;;;;5.22;1.92;;;;;;;13.60;78.27;95712.19;5007693;28;20836;-67
2021/05/06 11:11:14;;;;;;;5.30;2.20;;;;;;;13.56;74.41;95718.88;4999443;28;20069;-65
2021/05/06 11:14:08;;;;;;;6.07;2.58;;;;;;;13.05;73.06;95716.81;4994285;28;20210;-66
2021/05/06 11:16:39;;;;;;;3.25;1.50;;;;;;;12.90;76.16;95725.69;4997489;28;20437;-65
2021/05/06 11:19:06;;;;;;;;;;;;;;;12.56;81.75;95719.00;5004392;28;20073;-66
2021/05/06 11:21:37;;;;;;;3.65;1.65;;;;;;;12.74;79.71;95724.00;5001683;28;20478;-66
2021/05/06 11:24:17;;;;;;;6.18;1.92;;;;;;;12.79;80.75;95711.88;4998321;28;20070;-66
2021/05/06 11:27:12;;;;;;;2.63;1.67;;;;;;;12.89;80.33;95708.16;5003978;28;20033;-66
2021/05/06 11:29:41;;;;;;;3.45;1.60;;;;;;;12.99;86.31;95719.34;4982755;28;20076;-66
2021/05/06 11:32:22;;;;;;;3.50;1.55;;;;;;;12.74;86.67;95719.53;5002908;28;20081;-65
2021/05/06 11:34:52;;;;;;;3.45;1.52;;;;;;;13.23;87.48;95705.91;4998392;28;20045;-67
2021/05/06 11:37:26;;;;;;;3.67;1.70;;;;;;;13.23;83.09;95705.06;5003008;28;20088;-66
2021/05/06 11:40:01;;;;;;;4.07;1.60;;;;;;;12.58;92.45;95701.94;4987871;28;21544;-67
2021/05/06 11:42:35;;;;;;;4.55;2.00;;;;;;;12.96;95.78;95706.47;4968727;28;20077;-66
2021/05/06 11:45:09;;;;;;;2.85;1.75;;;;;;;12.73;98.05;95691.44;5001519;28;20512;-64
2021/05/06 11:47:38;;;;;;;4.15;1.80;;;;;;;12.61;100.00;95706.06;5004356;28;20508;-64
2021/05/06 11:50:28;;;;;;;3.88;1.73;;;;;;;12.44;100.00;95702.69;4984002;28;20073;-64
2021/05/06 11:53:17;;;;;;;3.63;1.77;;;;;;;12.58;100.00;95704.59;5001434;28;20073;-64
2021/05/06 11:55:49;;;;;;;4.80;1.77;;;;;;;11.96;100.00;95706.41;4984288;28;20050;-64
2021/05/06 11:58:24;;;;;;;3.90;1.60;;;;;;;12.08;100.00;95710.34;5003506;28;20392;-64
2021/05/06 12:00:54;;;;;;;2.88;1.90;;;;;;;12.14;100.00;95708.81;5005021;28;23370;-63
2021/05/06 12:03:43;;;;;;;3.05;1.67;;;;;;;12.12;100.00;95709.00;5003003;28;20042;-64
2021/05/06 12:06:12;;;;;;;2.88;1.63;;;;;;;12.14;100.00;95688.47;5001319;28;20084;-66
2021/05/06 12:08:47;;;;;;;3.25;1.88;;;;;;;12.23;100.00;95689.28;5006034;28;20046;-65
2021/05/06 12:11:16;;;;;;;3.97;2.28;;;;;;;12.80;100.00;95692.38;5000284;28;20074;-66
2021/05/06 12:13:45;;;;;;;3.80;1.90;;;;;;;12.48;100.00;95689.94;5001869;28;20521;-65
2021/05/06 12:16:19;;;;;;;2.50;1.85;;;;;;;12.20;100.00;95684.34;5002849;28;20085;-65
2021/05/06 12:18:56;;;;;;;3.10;1.90;;;;;;;12.41;100.00;95684.53;5006180;28;20088;-65
2021/05/06 12:21:41;;;;;;;3.00;1.80;;;;;;;12.59;100.00;95678.94;5001748;28;20057;-65
2021/05/06 12:24:11;;;;;;;3.67;1.70;;;;;;;12.66;100.00;95673.78;5002382;28;20064;-64
2021/05/06 12:26:41;;;;;;;4.35;1.80;;;;;;;12.37;100.00;95667.38;5004807;28;20100;-64
2021/05/06 12:29:22;;;;;;;2.15;1.50;;;;;;;12.37;100.00;95666.56;5007679;28;20065;-65
2021/05/06 12:31:51;;;;;;;3.33;1.85;;;;;;;12.56;100.00;95656.34;5005434;28;20077;-65
2021/05/06 12:34:21;;;;;;;3.53;1.83;;;;;;;12.32;100.00;95656.53;5006693;28;20093;-65
2021/05/06 12:36:57;;;;;;;4.03;1.75;;;;;;;12.16;100.00;95649.50;5009965;28;20050;-64
2021/05/06 12:39:26;;;;;;;3.33;1.80;;;;;;;12.13;100.00;95641.91;5006114;28;20073;-65
2021/05/06 12:41:56;;;;;;;3.70;2.30;;;;;;;12.28;100.00;95639.34;5006860;28;20073;-66
2021/05/06 12:44:43;;;;;;;2.42;1.77;;;;;;;11.96;100.00;95633.25;5004504;28;20073;-65
2021/05/06 12:47:19;;;;;;;3.25;1.90;;;;;;;12.06;100.00;95628.56;5007864;28;20465;-64
2021/05/06 12:49:49;;;;;;;4.82;2.40;;;;;;;12.57;100.00;95626.25;5006658;28;20065;-65
2021/05/06 12:52:30;;;;;;;3.65;2.00;;;;;;;12.41;100.00;95617.63;5003168;28;20104;-65
2021/05/06 12:54:59;;;;;;;2.88;1.80;;;;;;;12.57;100.00;95617.50;5010807;28;20073;-66
2021/05/06 12:57:27;;;;;;;3.70;1.85;;;;;;;12.21;100.00;95607.50;5003209;28;20038;-66
2021/05/06 12:59:55;;;;;;;3.38;2.00;;;;;;;12.78;100.00;95604.41;5002800;28;20077;-66
2021/05/06 13:02:23;;;;;;;2.33;1.70;;;;;;;12.17;100.00;95598.28;5005638;28;20146;-66
2021/05/06 13:04:55;;;;;;;4.07;1.92;;;;;;;12.27;100.00;95593.56;5003972;28;20058;-66
2021/05/06 13:07:26;;;;;;;3.42;1.88;;;;;;;12.77;100.00;95591.38;5007934;28;20069;-64
2021/05/06 13:09:55;;;;;;;4.65;1.90;;;;;;;12.79;100.00;95586.72;5008672;28;20089;-64
2021/05/06 13:12:25;;;;;;;2.78;1.60;;;;;;;12.61;100.00;95586.22;5005101;28;20065;-66
2021/05/06 13:14:55;;;;;;;3.13;2.10;;;;;;;12.25;100.00;95582.38;5006084;28;20058;-66
2021/05/06 13:17:24;;;;;;;3.47;2.00;;;;;;;12.68;100.00;95569.44;5006464;28;20061;-65
2021/05/06 13:19:53;;;;;;;3.85;1.85;;;;;;;13.09;100.00;95568.22;4998418;28;20062;-64
2021/05/06 13:22:24;;;;;;;4.53;1.92;;;;;;;12.64;100.00;95562.88;4991024;28;20462;-64
2021/05/06 13:24:53;;;;;;;3.88;2.13;;;;;;;12.76;100.00;95557.97;5006574;28;20524;-62
2021/05/06 13:27:22;;;;;;;3.33;1.73;;;;;;;12.20;100.00;95558.28;5006341;28;20085;-63
2021/05/06 13:29:58;;;;;;;3.28;1.85;;;;;;;11.85;100.00;95557.03;5003924;28;20108;-65
2021/05/06 13:32:34;;;;;;;3.50;1.95;;;;;;;12.06;100.00;95543.19;5001590;28;20069;-66
2021/05/06 13:35:05;;;;;;;3.42;1.70;;;;;;;12.15;100.00;95542.16;4999361;28;20069;-68
2021/05/06 13:37:41;;;;;;;5.97;2.10;;;;;;;12.33;100.00;95536.53;5005217;28;20068;-64
2021/05/06 13:40:10;;;;;;;4.80;2.10;;;;;;;11.81;100.00;95519.56;5004374;28;20029;-64
2021/05/06 13:42:39;;;;;;;3.63;2.03;;;;;;;11.63;100.00;95526.91;5008077;28;20081;-65
2021/05/06 13:45:10;;;;;;;4.70;2.17;;;;;;;11.28;100.00;95539.63;4998237;28;20073;-63
2021/05/06 13:47:39;;;;;;;4.78;2.03;;;;;;;11.54;100.00;95527.97;5000247;28;20098;-66
2021/05/06 13:50:10;;;;;;;5.07;2.30;;;;;;;11.53;100.00;95527.16;4985549;28;20069;-67
2021/05/06 13:52:38;;;;;;;;;;;;;;;11.63;100.00;95525.13;5007257;28;20448;-64
2021/05/06 13:55:06;;;;;;;3.55;2.20;;;;;;;11.63;100.00;95524.28;5006987;28;19921;-65
2021/05/06 13:57:34;;;;;;;3.85;2.30;;;;;;;11.87;100.00;95512.75;5003354;28;20038;-66
2021/05/06 14:00:02;;;;;;;3.50;2.30;;;;;;;12.35;100.00;95508.94;5007233;28;20066;-65
2021/05/06 14:02:30;;;;;;;3.80;2.30;;;;;;;12.43;100.00;95496.66;5001293;28;20057;-66
2021/05/06 14:04:59;;;;;;;4.53;2.20;;;;;;;12.23;100.00;95496.31;5006778;28;20046;-65
2021/05/06 14:07:28;;;;;;;5.47;2.17;;;;;;;12.38;100.00;95493.69;5001795;28;20058;-66
2021/05/06 14:09:57;;;;;;;2.92;2.08;;;;;;;12.50;100.00;95485.16;5011015;28;20041;-66
2021/05/06 14:12:25;;;;;;;4.22;2.75;;;;;;;12.68;100.00;95476.88;5004584;28;20524;-66
2021/05/06 14:14:53;;;;;;;3.53;2.10;;;;;;;12.84;100.00;95473.25;5006211;28;20034;-65